sensor_id;sensor_type;location;lat;lon;timestamp;P1;durP1;ratioP1;P2;durP2;ratioP2
19907;SDS011;10116;53.112;7.356;2023-02-03T00:01:51;1.00;;;1.00;;
19907;SDS011;10116;53.112;7.356;2023-02-03T00:04:17;1.33;;;0.90;;
19907;SDS011;10116;53.112;7.356;2023-02-03T00:06:42;1.50;;;1.13;;
19907;SDS011;10116;53.112;7.356;2023-02-03T00:09:08;1.33;;;0.77;;
19907;SDS011;10116;53.112;7.356;2023-02-03T00:11:34;1.70;;;1.10;;
19907;SDS011;10116;53.112;7.356;2023-02-03T00:14:00;0.80;;;0.70;;
19907;SDS011;10116;53.112;7.356;2023-02-03T00:16:26;0.90;;;0.90;;
19907;SDS011;10116;53.112;7.356;2023-02-03T00:18:51;4.10;;;0.93;;
19907;SDS011;10116;53.112;7.356;2023-02-03T00:21:17;1.53;;;0.90;;
19907;SDS011;10116;53.112;7.356;2023-02-03T00:23:42;0.63;;;0.60;;
19907;SDS011;10116;53.112;7.356;2023-02-03T00:26:12;1.00;;;0.93;;
19907;SDS011;10116;53.112;7.356;2023-02-03T00:28:39;0.80;;;0.77;;
19907;SDS011;10116;53.112;7.356;2023-02-03T00:31:05;0.90;;;0.77;;
19907;SDS011;10116;53.112;7.356;2023-02-03T00:33:42;3.07;;;0.90;;
19907;SDS011;10116;53.112;7.356;2023-02-03T00:36:07;0.80;;;0.77;;
19907;SDS011;10116;53.112;7.356;2023-02-03T00:38:33;1.20;;;1.00;;
19907;SDS011;10116;53.112;7.356;2023-02-03T00:40:59;0.87;;;0.87;;
19907;SDS011;10116;53.112;7.356;2023-02-03T00:43:25;3.07;;;1.10;;
19907;SDS011;10116;53.112;7.356;2023-02-03T00:45:50;0.80;;;0.80;;
19907;SDS011;10116;53.112;7.356;2023-02-03T00:48:16;1.57;;;1.07;;
19907;SDS011;10116;53.112;7.356;2023-02-03T00:50:41;0.93;;;0.80;;
19907;SDS011;10116;53.112;7.356;2023-02-03T00:53:10;1.03;;;0.77;;
19907;SDS011;10116;53.112;7.356;2023-02-03T00:55:36;2.20;;;1.27;;
19907;SDS011;10116;53.112;7.356;2023-02-03T00:58:02;1.53;;;0.97;;
19907;SDS011;10116;53.112;7.356;2023-02-03T01:00:27;0.97;;;0.80;;
19907;SDS011;10116;53.112;7.356;2023-02-03T01:02:53;2.70;;;0.90;;
19907;SDS011;10116;53.112;7.356;2023-02-03T01:05:18;1.60;;;0.80;;
19907;SDS011;10116;53.112;7.356;2023-02-03T01:07:44;1.03;;;0.93;;
19907;SDS011;10116;53.112;7.356;2023-02-03T01:10:09;1.03;;;0.90;;
19907;SDS011;10116;53.112;7.356;2023-02-03T01:12:35;1.23;;;0.70;;
19907;SDS011;10116;53.112;7.356;2023-02-03T01:15:01;1.00;;;0.90;;
19907;SDS011;10116;53.112;7.356;2023-02-03T01:17:26;1.30;;;1.20;;
19907;SDS011;10116;53.112;7.356;2023-02-03T01:19:52;2.93;;;1.03;;
19907;SDS011;10116;53.112;7.356;2023-02-03T01:22:18;0.87;;;0.70;;
19907;SDS011;10116;53.112;7.356;2023-02-03T01:24:44;0.93;;;0.80;;
19907;SDS011;10116;53.112;7.356;2023-02-03T01:27:09;1.33;;;0.87;;
19907;SDS011;10116;53.112;7.356;2023-02-03T01:29:35;0.93;;;0.80;;
19907;SDS011;10116;53.112;7.356;2023-02-03T01:32:01;0.87;;;0.80;;
19907;SDS011;10116;53.112;7.356;2023-02-03T01:34:27;0.83;;;0.83;;
19907;SDS011;10116;53.112;7.356;2023-02-03T01:36:53;2.10;;;0.70;;
19907;SDS011;10116;53.112;7.356;2023-02-03T01:39:18;3.13;;;1.20;;
19907;SDS011;10116;53.112;7.356;2023-02-03T01:41:44;1.33;;;1.00;;
19907;SDS011;10116;53.112;7.356;2023-02-03T01:49:54;1.20;;;1.10;;
19907;SDS011;10116;53.112;7.356;2023-02-03T01:52:30;0.90;;;0.80;;
19907;SDS011;10116;53.112;7.356;2023-02-03T01:54:56;0.83;;;0.83;;
19907;SDS011;10116;53.112;7.356;2023-02-03T01:57:33;0.90;;;0.90;;
19907;SDS011;10116;53.112;7.356;2023-02-03T02:00:04;1.57;;;0.60;;
19907;SDS011;10116;53.112;7.356;2023-02-03T02:02:32;1.73;;;0.80;;
19907;SDS011;10116;53.112;7.356;2023-02-03T02:05:06;1.67;;;1.10;;
19907;SDS011;10116;53.112;7.356;2023-02-03T02:07:33;0.73;;;0.70;;
19907;SDS011;10116;53.112;7.356;2023-02-03T02:10:01;0.60;;;0.60;;
19907;SDS011;10116;53.112;7.356;2023-02-03T02:12:27;0.60;;;0.60;;
19907;SDS011;10116;53.112;7.356;2023-02-03T02:14:53;1.03;;;0.83;;
19907;SDS011;10116;53.112;7.356;2023-02-03T02:17:24;2.10;;;0.87;;
19907;SDS011;10116;53.112;7.356;2023-02-03T02:20:30;0.60;;;0.60;;
19907;SDS011;10116;53.112;7.356;2023-02-03T02:23:08;0.70;;;0.70;;
19907;SDS011;10116;53.112;7.356;2023-02-03T02:41:48;2.00;;;0.80;;
19907;SDS011;10116;53.112;7.356;2023-02-03T02:44:22;0.93;;;0.83;;
19907;SDS011;10116;53.112;7.356;2023-02-03T02:46:55;1.10;;;0.80;;
19907;SDS011;10116;53.112;7.356;2023-02-03T02:49:29;1.07;;;0.57;;
19907;SDS011;10116;53.112;7.356;2023-02-03T02:52:05;0.80;;;0.73;;
19907;SDS011;10116;53.112;7.356;2023-02-03T02:54:32;0.80;;;0.77;;
19907;SDS011;10116;53.112;7.356;2023-02-03T02:57:04;1.57;;;0.80;;
19907;SDS011;10116;53.112;7.356;2023-02-03T02:59:34;1.33;;;0.77;;
19907;SDS011;10116;53.112;7.356;2023-02-03T03:01:59;1.13;;;0.80;;
19907;SDS011;10116;53.112;7.356;2023-02-03T03:04:26;0.90;;;0.80;;
19907;SDS011;10116;53.112;7.356;2023-02-03T03:06:58;0.67;;;0.67;;
19907;SDS011;10116;53.112;7.356;2023-02-03T03:09:34;1.90;;;0.87;;
19907;SDS011;10116;53.112;7.356;2023-02-03T03:14:37;0.97;;;0.77;;
19907;SDS011;10116;53.112;7.356;2023-02-03T03:17:07;1.13;;;0.90;;
19907;SDS011;10116;53.112;7.356;2023-02-03T03:19:41;1.53;;;0.80;;
19907;SDS011;10116;53.112;7.356;2023-02-03T03:22:13;1.30;;;0.70;;
19907;SDS011;10116;53.112;7.356;2023-02-03T03:24:46;1.40;;;1.00;;
19907;SDS011;10116;53.112;7.356;2023-02-03T03:27:19;1.30;;;0.93;;
19907;SDS011;10116;53.112;7.356;2023-02-03T03:29:52;1.10;;;1.10;;
19907;SDS011;10116;53.112;7.356;2023-02-03T03:32:22;1.13;;;0.97;;
19907;SDS011;10116;53.112;7.356;2023-02-03T03:34:48;0.80;;;0.60;;
19907;SDS011;10116;53.112;7.356;2023-02-03T03:37:18;1.30;;;1.03;;
19907;SDS011;10116;53.112;7.356;2023-02-03T03:39:53;2.50;;;1.03;;
19907;SDS011;10116;53.112;7.356;2023-02-03T03:44:57;0.93;;;0.93;;
19907;SDS011;10116;53.112;7.356;2023-02-03T03:50:18;2.30;;;1.27;;
19907;SDS011;10116;53.112;7.356;2023-02-03T03:52:47;1.47;;;0.80;;
19907;SDS011;10116;53.112;7.356;2023-02-03T03:55:15;1.50;;;0.87;;
19907;SDS011;10116;53.112;7.356;2023-02-03T03:58:03;0.97;;;0.80;;
19907;SDS011;10116;53.112;7.356;2023-02-03T04:00:32;2.03;;;1.10;;
19907;SDS011;10116;53.112;7.356;2023-02-03T04:03:01;0.80;;;0.73;;
19907;SDS011;10116;53.112;7.356;2023-02-03T04:05:38;1.53;;;0.90;;
19907;SDS011;10116;53.112;7.356;2023-02-03T04:08:04;1.10;;;0.90;;
19907;SDS011;10116;53.112;7.356;2023-02-03T04:10:35;2.23;;;0.87;;
19907;SDS011;10116;53.112;7.356;2023-02-03T04:13:02;1.27;;;0.77;;
19907;SDS011;10116;53.112;7.356;2023-02-03T04:15:29;1.77;;;0.90;;
19907;SDS011;10116;53.112;7.356;2023-02-03T04:17:56;1.80;;;0.83;;
19907;SDS011;10116;53.112;7.356;2023-02-03T04:20:22;3.90;;;1.13;;
19907;SDS011;10116;53.112;7.356;2023-02-03T04:22:48;1.83;;;0.80;;
19907;SDS011;10116;53.112;7.356;2023-02-03T04:25:15;0.73;;;0.70;;
19907;SDS011;10116;53.112;7.356;2023-02-03T04:27:41;4.37;;;1.00;;
19907;SDS011;10116;53.112;7.356;2023-02-03T04:30:07;1.17;;;0.90;;
19907;SDS011;10116;53.112;7.356;2023-02-03T04:32:34;1.30;;;0.87;;
19907;SDS011;10116;53.112;7.356;2023-02-03T04:34:59;1.13;;;0.80;;
19907;SDS011;10116;53.112;7.356;2023-02-03T04:37:26;2.70;;;1.00;;
19907;SDS011;10116;53.112;7.356;2023-02-03T04:39:55;1.37;;;1.00;;
19907;SDS011;10116;53.112;7.356;2023-02-03T04:42:22;1.63;;;0.93;;
19907;SDS011;10116;53.112;7.356;2023-02-03T04:44:48;2.90;;;1.00;;
19907;SDS011;10116;53.112;7.356;2023-02-03T04:47:14;2.80;;;0.90;;
19907;SDS011;10116;53.112;7.356;2023-02-03T04:49:40;3.37;;;1.30;;
19907;SDS011;10116;53.112;7.356;2023-02-03T04:52:06;2.53;;;0.80;;
19907;SDS011;10116;53.112;7.356;2023-02-03T04:54:32;1.63;;;0.80;;
19907;SDS011;10116;53.112;7.356;2023-02-03T04:56:58;2.07;;;1.20;;
19907;SDS011;10116;53.112;7.356;2023-02-03T04:59:24;1.43;;;1.00;;
19907;SDS011;10116;53.112;7.356;2023-02-03T05:01:50;2.40;;;0.90;;
19907;SDS011;10116;53.112;7.356;2023-02-03T05:04:15;2.40;;;0.93;;
19907;SDS011;10116;53.112;7.356;2023-02-03T05:06:41;4.13;;;0.90;;
19907;SDS011;10116;53.112;7.356;2023-02-03T05:09:07;2.03;;;0.87;;
19907;SDS011;10116;53.112;7.356;2023-02-03T05:11:32;3.83;;;0.90;;
19907;SDS011;10116;53.112;7.356;2023-02-03T05:13:58;2.30;;;0.90;;
19907;SDS011;10116;53.112;7.356;2023-02-03T05:16:24;4.70;;;1.23;;
19907;SDS011;10116;53.112;7.356;2023-02-03T05:18:49;3.17;;;1.17;;
19907;SDS011;10116;53.112;7.356;2023-02-03T05:21:15;2.63;;;0.93;;
19907;SDS011;10116;53.112;7.356;2023-02-03T05:23:41;2.10;;;1.07;;
19907;SDS011;10116;53.112;7.356;2023-02-03T05:26:06;2.50;;;1.30;;
19907;SDS011;10116;53.112;7.356;2023-02-03T05:28:32;1.17;;;1.00;;
19907;SDS011;10116;53.112;7.356;2023-02-03T05:30:59;2.07;;;1.13;;
19907;SDS011;10116;53.112;7.356;2023-02-03T05:33:26;1.43;;;1.23;;
19907;SDS011;10116;53.112;7.356;2023-02-03T05:35:52;0.80;;;0.80;;
19907;SDS011;10116;53.112;7.356;2023-02-03T05:38:17;2.40;;;0.90;;
19907;SDS011;10116;53.112;7.356;2023-02-03T05:40:43;2.17;;;1.03;;
19907;SDS011;10116;53.112;7.356;2023-02-03T05:43:30;1.77;;;1.00;;
19907;SDS011;10116;53.112;7.356;2023-02-03T05:45:58;1.97;;;1.10;;
19907;SDS011;10116;53.112;7.356;2023-02-03T05:48:28;1.60;;;1.17;;
19907;SDS011;10116;53.112;7.356;2023-02-03T05:50:54;2.03;;;1.20;;
19907;SDS011;10116;53.112;7.356;2023-02-03T05:53:19;0.97;;;0.80;;
19907;SDS011;10116;53.112;7.356;2023-02-03T05:55:45;2.87;;;1.47;;
19907;SDS011;10116;53.112;7.356;2023-02-03T05:58:11;1.20;;;1.10;;
19907;SDS011;10116;53.112;7.356;2023-02-03T06:00:37;6.43;;;1.20;;
19907;SDS011;10116;53.112;7.356;2023-02-03T06:03:03;2.00;;;1.13;;
19907;SDS011;10116;53.112;7.356;2023-02-03T06:05:29;2.07;;;1.07;;
19907;SDS011;10116;53.112;7.356;2023-02-03T06:07:56;1.43;;;1.10;;
19907;SDS011;10116;53.112;7.356;2023-02-03T06:10:21;0.80;;;0.80;;
19907;SDS011;10116;53.112;7.356;2023-02-03T06:12:47;2.03;;;1.20;;
19907;SDS011;10116;53.112;7.356;2023-02-03T06:15:14;1.10;;;1.10;;
19907;SDS011;10116;53.112;7.356;2023-02-03T06:17:42;1.27;;;0.87;;
19907;SDS011;10116;53.112;7.356;2023-02-03T06:20:10;1.20;;;1.00;;
19907;SDS011;10116;53.112;7.356;2023-02-03T06:22:36;2.20;;;1.20;;
19907;SDS011;10116;53.112;7.356;2023-02-03T06:25:02;2.20;;;1.10;;
19907;SDS011;10116;53.112;7.356;2023-02-03T06:27:28;3.73;;;1.40;;
19907;SDS011;10116;53.112;7.356;2023-02-03T06:29:54;6.30;;;1.50;;
19907;SDS011;10116;53.112;7.356;2023-02-03T06:32:19;6.10;;;1.53;;
19907;SDS011;10116;53.112;7.356;2023-02-03T06:34:45;3.50;;;1.60;;
19907;SDS011;10116;53.112;7.356;2023-02-03T06:37:11;3.27;;;1.30;;
19907;SDS011;10116;53.112;7.356;2023-02-03T06:39:36;4.47;;;1.40;;
19907;SDS011;10116;53.112;7.356;2023-02-03T06:42:02;1.33;;;1.10;;
19907;SDS011;10116;53.112;7.356;2023-02-03T06:44:28;3.87;;;2.30;;
19907;SDS011;10116;53.112;7.356;2023-02-03T06:46:53;2.90;;;1.33;;
19907;SDS011;10116;53.112;7.356;2023-02-03T06:49:20;4.40;;;1.70;;
19907;SDS011;10116;53.112;7.356;2023-02-03T06:51:46;3.37;;;1.47;;
19907;SDS011;10116;53.112;7.356;2023-02-03T06:54:12;6.40;;;2.20;;
19907;SDS011;10116;53.112;7.356;2023-02-03T06:56:38;3.27;;;1.30;;
19907;SDS011;10116;53.112;7.356;2023-02-03T06:59:04;11.23;;;2.30;;
19907;SDS011;10116;53.112;7.356;2023-02-03T07:01:30;7.20;;;2.97;;
19907;SDS011;10116;53.112;7.356;2023-02-03T07:03:56;4.40;;;1.70;;
19907;SDS011;10116;53.112;7.356;2023-02-03T07:06:26;7.03;;;1.67;;
19907;SDS011;10116;53.112;7.356;2023-02-03T07:08:54;4.20;;;1.87;;
19907;SDS011;10116;53.112;7.356;2023-02-03T07:11:20;5.20;;;1.87;;
19907;SDS011;10116;53.112;7.356;2023-02-03T07:13:46;5.73;;;2.00;;
19907;SDS011;10116;53.112;7.356;2023-02-03T07:16:11;4.10;;;2.00;;
19907;SDS011;10116;53.112;7.356;2023-02-03T07:18:37;8.83;;;2.10;;
19907;SDS011;10116;53.112;7.356;2023-02-03T07:21:03;4.87;;;1.90;;
19907;SDS011;10116;53.112;7.356;2023-02-03T07:23:30;6.10;;;2.30;;
19907;SDS011;10116;53.112;7.356;2023-02-03T07:25:59;4.73;;;1.87;;
19907;SDS011;10116;53.112;7.356;2023-02-03T07:28:26;7.63;;;2.03;;
19907;SDS011;10116;53.112;7.356;2023-02-03T07:30:52;8.30;;;2.40;;
19907;SDS011;10116;53.112;7.356;2023-02-03T07:33:18;11.47;;;2.33;;
19907;SDS011;10116;53.112;7.356;2023-02-03T07:35:49;5.47;;;2.43;;
19907;SDS011;10116;53.112;7.356;2023-02-03T07:38:16;3.17;;;2.13;;
19907;SDS011;10116;53.112;7.356;2023-02-03T07:40:41;6.70;;;1.97;;
19907;SDS011;10116;53.112;7.356;2023-02-03T07:43:07;5.10;;;2.20;;
19907;SDS011;10116;53.112;7.356;2023-02-03T07:45:32;6.13;;;2.10;;
19907;SDS011;10116;53.112;7.356;2023-02-03T07:47:58;4.90;;;2.10;;
19907;SDS011;10116;53.112;7.356;2023-02-03T07:50:24;4.60;;;2.33;;
19907;SDS011;10116;53.112;7.356;2023-02-03T07:52:49;3.80;;;1.97;;
19907;SDS011;10116;53.112;7.356;2023-02-03T07:55:16;8.43;;;2.20;;
19907;SDS011;10116;53.112;7.356;2023-02-03T07:57:41;3.37;;;1.90;;
19907;SDS011;10116;53.112;7.356;2023-02-03T08:00:09;2.93;;;1.83;;
19907;SDS011;10116;53.112;7.356;2023-02-03T08:02:36;4.67;;;2.50;;
19907;SDS011;10116;53.112;7.356;2023-02-03T08:05:02;5.67;;;2.43;;
19907;SDS011;10116;53.112;7.356;2023-02-03T08:07:28;3.93;;;1.90;;
19907;SDS011;10116;53.112;7.356;2023-02-03T08:09:53;4.33;;;2.10;;
19907;SDS011;10116;53.112;7.356;2023-02-03T08:12:19;5.80;;;2.30;;
19907;SDS011;10116;53.112;7.356;2023-02-03T08:14:45;4.77;;;1.97;;
19907;SDS011;10116;53.112;7.356;2023-02-03T08:17:10;6.67;;;2.17;;
19907;SDS011;10116;53.112;7.356;2023-02-03T08:19:36;3.63;;;1.87;;
19907;SDS011;10116;53.112;7.356;2023-02-03T08:22:01;2.50;;;1.70;;
19907;SDS011;10116;53.112;7.356;2023-02-03T08:24:27;6.13;;;2.47;;
19907;SDS011;10116;53.112;7.356;2023-02-03T08:26:52;4.80;;;2.10;;
19907;SDS011;10116;53.112;7.356;2023-02-03T08:29:18;2.83;;;1.83;;
19907;SDS011;10116;53.112;7.356;2023-02-03T08:31:44;3.90;;;1.80;;
19907;SDS011;10116;53.112;7.356;2023-02-03T08:34:10;5.17;;;2.30;;
19907;SDS011;10116;53.112;7.356;2023-02-03T08:36:35;3.43;;;2.10;;
19907;SDS011;10116;53.112;7.356;2023-02-03T08:39:03;5.90;;;2.30;;
19907;SDS011;10116;53.112;7.356;2023-02-03T08:41:32;4.23;;;2.00;;
19907;SDS011;10116;53.112;7.356;2023-02-03T08:43:58;6.23;;;2.27;;
19907;SDS011;10116;53.112;7.356;2023-02-03T08:46:25;3.70;;;1.87;;
19907;SDS011;10116;53.112;7.356;2023-02-03T08:48:50;5.97;;;2.57;;
19907;SDS011;10116;53.112;7.356;2023-02-03T08:51:17;5.77;;;2.70;;
19907;SDS011;10116;53.112;7.356;2023-02-03T08:53:43;12.20;;;2.67;;
19907;SDS011;10116;53.112;7.356;2023-02-03T08:56:09;8.23;;;2.30;;
19907;SDS011;10116;53.112;7.356;2023-02-03T08:58:36;4.73;;;2.47;;
19907;SDS011;10116;53.112;7.356;2023-02-03T09:01:06;5.20;;;2.70;;
19907;SDS011;10116;53.112;7.356;2023-02-03T09:03:33;6.43;;;2.10;;
19907;SDS011;10116;53.112;7.356;2023-02-03T09:05:59;6.00;;;2.60;;
19907;SDS011;10116;53.112;7.356;2023-02-03T09:08:25;11.07;;;2.90;;
19907;SDS011;10116;53.112;7.356;2023-02-03T09:10:51;5.70;;;2.60;;
19907;SDS011;10116;53.112;7.356;2023-02-03T09:13:17;5.10;;;2.50;;
19907;SDS011;10116;53.112;7.356;2023-02-03T09:15:43;4.63;;;2.30;;
19907;SDS011;10116;53.112;7.356;2023-02-03T09:18:08;6.10;;;2.90;;
19907;SDS011;10116;53.112;7.356;2023-02-03T09:20:34;5.97;;;2.70;;
19907;SDS011;10116;53.112;7.356;2023-02-03T09:22:59;8.07;;;3.33;;
19907;SDS011;10116;53.112;7.356;2023-02-03T09:25:25;4.43;;;2.47;;
19907;SDS011;10116;53.112;7.356;2023-02-03T09:27:51;6.17;;;3.10;;
19907;SDS011;10116;53.112;7.356;2023-02-03T09:30:16;6.27;;;2.93;;
19907;SDS011;10116;53.112;7.356;2023-02-03T09:32:42;6.60;;;2.50;;
19907;SDS011;10116;53.112;7.356;2023-02-03T09:35:08;7.53;;;3.67;;
19907;SDS011;10116;53.112;7.356;2023-02-03T09:37:34;6.70;;;2.80;;
19907;SDS011;10116;53.112;7.356;2023-02-03T09:40:00;9.17;;;3.50;;
19907;SDS011;10116;53.112;7.356;2023-02-03T09:42:42;10.27;;;3.30;;
19907;SDS011;10116;53.112;7.356;2023-02-03T09:45:27;6.83;;;3.40;;
19907;SDS011;10116;53.112;7.356;2023-02-03T09:47:55;8.10;;;3.20;;
19907;SDS011;10116;53.112;7.356;2023-02-03T09:50:27;6.53;;;2.80;;
19907;SDS011;10116;53.112;7.356;2023-02-03T09:52:56;6.80;;;3.73;;
19907;SDS011;10116;53.112;7.356;2023-02-03T09:58:04;7.30;;;3.20;;
19907;SDS011;10116;53.112;7.356;2023-02-03T10:17:24;9.67;;;3.80;;
19907;SDS011;10116;53.112;7.356;2023-02-03T10:22:26;10.90;;;4.43;;
19907;SDS011;10116;53.112;7.356;2023-02-03T10:25:10;11.77;;;4.10;;
19907;SDS011;10116;53.112;7.356;2023-02-03T10:27:44;9.90;;;3.70;;
19907;SDS011;10116;53.112;7.356;2023-02-03T10:30:23;10.10;;;3.80;;
19907;SDS011;10116;53.112;7.356;2023-02-03T10:32:53;11.00;;;4.23;;
19907;SDS011;10116;53.112;7.356;2023-02-03T10:35:23;12.30;;;4.03;;
19907;SDS011;10116;53.112;7.356;2023-02-03T10:37:57;8.37;;;4.00;;
19907;SDS011;10116;53.112;7.356;2023-02-03T10:40:23;14.87;;;4.63;;
19907;SDS011;10116;53.112;7.356;2023-02-03T10:42:50;15.80;;;4.90;;
19907;SDS011;10116;53.112;7.356;2023-02-03T10:45:36;11.70;;;4.63;;
19907;SDS011;10116;53.112;7.356;2023-02-03T10:48:03;15.27;;;4.67;;
19907;SDS011;10116;53.112;7.356;2023-02-03T10:50:31;15.33;;;4.73;;
19907;SDS011;10116;53.112;7.356;2023-02-03T10:55:41;17.93;;;5.23;;
19907;SDS011;10116;53.112;7.356;2023-02-03T10:58:10;13.30;;;4.67;;
19907;SDS011;10116;53.112;7.356;2023-02-03T11:00:41;11.30;;;3.63;;
19907;SDS011;10116;53.112;7.356;2023-02-03T11:03:19;9.87;;;4.03;;
19907;SDS011;10116;53.112;7.356;2023-02-03T11:06:25;11.60;;;4.40;;
19907;SDS011;10116;53.112;7.356;2023-02-03T11:08:47;13.53;;;4.10;;
19907;SDS011;10116;53.112;7.356;2023-02-03T11:16:20;10.63;;;4.30;;
19907;SDS011;10116;53.112;7.356;2023-02-03T11:21:52;14.03;;;4.83;;
19907;SDS011;10116;53.112;7.356;2023-02-03T11:24:24;14.80;;;5.47;;
19907;SDS011;10116;53.112;7.356;2023-02-03T11:26:59;11.00;;;4.80;;
19907;SDS011;10116;53.112;7.356;2023-02-03T11:29:31;10.83;;;4.53;;
19907;SDS011;10116;53.112;7.356;2023-02-03T11:32:17;13.13;;;5.63;;
19907;SDS011;10116;53.112;7.356;2023-02-03T11:34:48;12.67;;;4.50;;
19907;SDS011;10116;53.112;7.356;2023-02-03T11:37:28;15.50;;;5.30;;
19907;SDS011;10116;53.112;7.356;2023-02-03T11:39:56;13.53;;;5.27;;
19907;SDS011;10116;53.112;7.356;2023-02-03T11:47:55;17.80;;;5.03;;
19907;SDS011;10116;53.112;7.356;2023-02-03T12:21:19;16.27;;;5.50;;
19907;SDS011;10116;53.112;7.356;2023-02-03T12:26:22;15.17;;;5.40;;
19907;SDS011;10116;53.112;7.356;2023-02-03T12:34:35;17.53;;;4.90;;
19907;SDS011;10116;53.112;7.356;2023-02-03T12:39:50;17.30;;;5.30;;
19907;SDS011;10116;53.112;7.356;2023-02-03T12:44:45;18.90;;;4.90;;
19907;SDS011;10116;53.112;7.356;2023-02-03T12:47:27;12.83;;;5.17;;
19907;SDS011;10116;53.112;7.356;2023-02-03T12:50:13;9.47;;;4.47;;
19907;SDS011;10116;53.112;7.356;2023-02-03T12:52:44;10.00;;;4.17;;
19907;SDS011;10116;53.112;7.356;2023-02-03T12:57:47;8.67;;;3.70;;
19907;SDS011;10116;53.112;7.356;2023-02-03T13:00:29;11.47;;;4.57;;
19907;SDS011;10116;53.112;7.356;2023-02-03T13:11:51;8.60;;;3.90;;
19907;SDS011;10116;53.112;7.356;2023-02-03T13:14:27;9.37;;;4.00;;
19907;SDS011;10116;53.112;7.356;2023-02-03T13:17:45;14.60;;;5.03;;
19907;SDS011;10116;53.112;7.356;2023-02-03T13:19:55;15.30;;;4.33;;
19907;SDS011;10116;53.112;7.356;2023-02-03T13:22:24;12.67;;;4.00;;
19907;SDS011;10116;53.112;7.356;2023-02-03T13:24:58;10.90;;;3.83;;
19907;SDS011;10116;53.112;7.356;2023-02-03T13:27:45;11.73;;;3.83;;
19907;SDS011;10116;53.112;7.356;2023-02-03T13:41:21;9.13;;;3.60;;
19907;SDS011;10116;53.112;7.356;2023-02-03T13:44:03;7.53;;;3.60;;
19907;SDS011;10116;53.112;7.356;2023-02-03T13:46:30;7.83;;;3.23;;
19907;SDS011;10116;53.112;7.356;2023-02-03T13:48:59;6.67;;;3.20;;
19907;SDS011;10116;53.112;7.356;2023-02-03T13:51:28;8.33;;;3.70;;
19907;SDS011;10116;53.112;7.356;2023-02-03T13:53:59;8.70;;;4.07;;
19907;SDS011;10116;53.112;7.356;2023-02-03T13:56:27;6.50;;;3.53;;
19907;SDS011;10116;53.112;7.356;2023-02-03T13:59:03;8.50;;;3.80;;
19907;SDS011;10116;53.112;7.356;2023-02-03T14:01:32;7.63;;;3.43;;
19907;SDS011;10116;53.112;7.356;2023-02-03T14:04:00;6.30;;;3.40;;
19907;SDS011;10116;53.112;7.356;2023-02-03T14:09:33;8.40;;;3.63;;
19907;SDS011;10116;53.112;7.356;2023-02-03T14:12:15;8.80;;;3.40;;
19907;SDS011;10116;53.112;7.356;2023-02-03T14:17:59;9.10;;;3.97;;
19907;SDS011;10116;53.112;7.356;2023-02-03T14:20:33;8.73;;;3.67;;
19907;SDS011;10116;53.112;7.356;2023-02-03T14:22:57;6.97;;;3.00;;
19907;SDS011;10116;53.112;7.356;2023-02-03T14:25:29;7.93;;;3.63;;
19907;SDS011;10116;53.112;7.356;2023-02-03T14:27:58;8.40;;;3.53;;
19907;SDS011;10116;53.112;7.356;2023-02-03T14:30:29;7.07;;;3.87;;
19907;SDS011;10116;53.112;7.356;2023-02-03T14:32:55;8.03;;;3.30;;
19907;SDS011;10116;53.112;7.356;2023-02-03T14:35:33;5.60;;;3.27;;
19907;SDS011;10116;53.112;7.356;2023-02-03T14:38:08;8.90;;;3.87;;
19907;SDS011;10116;53.112;7.356;2023-02-03T14:40:39;9.07;;;3.43;;
19907;SDS011;10116;53.112;7.356;2023-02-03T14:43:48;7.40;;;2.93;;
19907;SDS011;10116;53.112;7.356;2023-02-03T14:49:14;6.67;;;2.93;;
19907;SDS011;10116;53.112;7.356;2023-02-03T14:57:27;4.77;;;2.90;;
19907;SDS011;10116;53.112;7.356;2023-02-03T15:00:23;6.70;;;3.00;;
19907;SDS011;10116;53.112;7.356;2023-02-03T15:08:04;4.00;;;2.57;;
19907;SDS011;10116;53.112;7.356;2023-02-03T15:16:43;6.60;;;2.70;;
19907;SDS011;10116;53.112;7.356;2023-02-03T15:19:16;5.10;;;2.60;;
19907;SDS011;10116;53.112;7.356;2023-02-03T15:21:42;5.73;;;3.30;;
19907;SDS011;10116;53.112;7.356;2023-02-03T15:24:11;5.73;;;2.97;;
19907;SDS011;10116;53.112;7.356;2023-02-03T15:26:47;5.37;;;2.60;;
19907;SDS011;10116;53.112;7.356;2023-02-03T15:29:19;4.40;;;2.60;;
19907;SDS011;10116;53.112;7.356;2023-02-03T15:31:48;5.93;;;2.93;;
19907;SDS011;10116;53.112;7.356;2023-02-03T15:34:29;6.87;;;2.80;;
19907;SDS011;10116;53.112;7.356;2023-02-03T15:37:01;5.80;;;3.00;;
19907;SDS011;10116;53.112;7.356;2023-02-03T15:42:04;5.93;;;2.57;;
19907;SDS011;10116;53.112;7.356;2023-02-03T15:44:53;6.43;;;2.90;;
19907;SDS011;10116;53.112;7.356;2023-02-03T15:47:40;7.13;;;3.17;;
19907;SDS011;10116;53.112;7.356;2023-02-03T15:52:45;5.60;;;2.67;;
19907;SDS011;10116;53.112;7.356;2023-02-03T15:55:21;5.47;;;3.00;;
19907;SDS011;10116;53.112;7.356;2023-02-03T15:57:57;5.10;;;2.27;;
19907;SDS011;10116;53.112;7.356;2023-02-03T16:00:27;4.70;;;2.30;;
19907;SDS011;10116;53.112;7.356;2023-02-03T16:02:57;4.30;;;2.00;;
19907;SDS011;10116;53.112;7.356;2023-02-03T16:05:26;4.57;;;2.77;;
19907;SDS011;10116;53.112;7.356;2023-02-03T16:11:00;6.00;;;3.13;;
19907;SDS011;10116;53.112;7.356;2023-02-03T16:13:26;4.90;;;2.30;;
19907;SDS011;10116;53.112;7.356;2023-02-03T16:18:37;6.17;;;2.23;;
19907;SDS011;10116;53.112;7.356;2023-02-03T16:21:03;4.27;;;2.50;;
19907;SDS011;10116;53.112;7.356;2023-02-03T16:23:30;5.40;;;2.80;;
19907;SDS011;10116;53.112;7.356;2023-02-03T16:31:50;5.77;;;3.10;;
19907;SDS011;10116;53.112;7.356;2023-02-03T16:34:35;4.67;;;2.50;;
19907;SDS011;10116;53.112;7.356;2023-02-03T16:37:23;6.00;;;2.93;;
19907;SDS011;10116;53.112;7.356;2023-02-03T16:40:11;4.63;;;2.77;;
19907;SDS011;10116;53.112;7.356;2023-02-03T16:42:57;3.97;;;2.27;;
19907;SDS011;10116;53.112;7.356;2023-02-03T16:45:41;4.80;;;2.73;;
19907;SDS011;10116;53.112;7.356;2023-02-03T16:48:25;3.70;;;1.90;;
19907;SDS011;10116;53.112;7.356;2023-02-03T16:51:11;4.90;;;2.60;;
19907;SDS011;10116;53.112;7.356;2023-02-03T16:53:40;3.57;;;2.30;;
19907;SDS011;10116;53.112;7.356;2023-02-03T16:56:08;4.23;;;2.47;;
19907;SDS011;10116;53.112;7.356;2023-02-03T16:58:35;4.57;;;2.40;;
19907;SDS011;10116;53.112;7.356;2023-02-03T17:01:01;4.80;;;2.47;;
19907;SDS011;10116;53.112;7.356;2023-02-03T17:03:29;4.80;;;1.97;;
19907;SDS011;10116;53.112;7.356;2023-02-03T17:06:00;4.40;;;2.33;;
19907;SDS011;10116;53.112;7.356;2023-02-03T17:08:28;4.40;;;2.10;;
19907;SDS011;10116;53.112;7.356;2023-02-03T17:10:53;4.90;;;2.33;;
19907;SDS011;10116;53.112;7.356;2023-02-03T17:13:20;6.97;;;2.70;;
19907;SDS011;10116;53.112;7.356;2023-02-03T17:15:47;7.50;;;2.30;;
19907;SDS011;10116;53.112;7.356;2023-02-03T17:18:16;5.03;;;2.67;;
19907;SDS011;10116;53.112;7.356;2023-02-03T17:20:43;3.80;;;2.10;;
19907;SDS011;10116;53.112;7.356;2023-02-03T17:23:09;4.43;;;2.37;;
19907;SDS011;10116;53.112;7.356;2023-02-03T17:25:35;2.83;;;1.90;;
19907;SDS011;10116;53.112;7.356;2023-02-03T17:28:02;5.67;;;2.13;;
19907;SDS011;10116;53.112;7.356;2023-02-03T17:30:29;5.37;;;2.70;;
19907;SDS011;10116;53.112;7.356;2023-02-03T17:32:58;4.90;;;3.00;;
19907;SDS011;10116;53.112;7.356;2023-02-03T17:35:35;3.73;;;2.33;;
19907;SDS011;10116;53.112;7.356;2023-02-03T17:38:02;3.70;;;2.50;;
19907;SDS011;10116;53.112;7.356;2023-02-03T17:40:27;3.53;;;2.33;;
19907;SDS011;10116;53.112;7.356;2023-02-03T17:42:53;3.07;;;2.23;;
19907;SDS011;10116;53.112;7.356;2023-02-03T17:45:18;4.10;;;2.37;;
19907;SDS011;10116;53.112;7.356;2023-02-03T17:47:44;4.07;;;2.60;;
19907;SDS011;10116;53.112;7.356;2023-02-03T17:50:11;4.67;;;2.47;;
19907;SDS011;10116;53.112;7.356;2023-02-03T17:52:39;5.07;;;2.43;;
19907;SDS011;10116;53.112;7.356;2023-02-03T17:55:05;5.50;;;2.37;;
19907;SDS011;10116;53.112;7.356;2023-02-03T17:57:31;3.40;;;2.13;;